sensor_id;sensor_type;location;lat;lon;timestamp;P1;durP1;ratioP1;P2;durP2;ratioP2
79456;SDS011;69494;43.654;3.884;2023-04-25T17:19:11;3.80;;;1.35;;
79456;SDS011;69494;43.654;3.884;2023-04-25T17:21:36;3.28;;;1.30;;
79456;SDS011;69494;43.654;3.884;2023-04-25T17:24:02;5.10;;;1.30;;
79456;SDS011;69494;43.654;3.884;2023-04-25T17:26:30;4.80;;;1.50;;
79456;SDS011;69494;43.654;3.884;2023-04-25T17:28:55;4.72;;;1.58;;
79456;SDS011;69494;43.654;3.884;2023-04-25T17:31:21;6.47;;;1.27;;
79456;SDS011;69494;43.654;3.884;2023-04-25T17:33:47;3.08;;;1.33;;
79456;SDS011;69494;43.654;3.884;2023-04-25T17:36:13;4.15;;;1.42;;
79456;SDS011;69494;43.654;3.884;2023-04-25T17:38:39;5.13;;;1.30;;
79456;SDS011;69494;43.654;3.884;2023-04-25T17:41:04;3.97;;;1.48;;
79456;SDS011;69494;43.654;3.884;2023-04-25T17:43:30;3.13;;;1.35;;
79456;SDS011;69494;43.654;3.884;2023-04-25T17:45:57;3.72;;;1.30;;
79456;SDS011;69494;43.654;3.884;2023-04-25T17:48:22;4.35;;;1.63;;
79456;SDS011;69494;43.654;3.884;2023-04-25T17:50:48;4.60;;;1.30;;
79456;SDS011;69494;43.654;3.884;2023-04-25T17:53:14;2.83;;;1.27;;
79456;SDS011;69494;43.654;3.884;2023-04-25T17:55:39;2.90;;;1.20;;
79456;SDS011;69494;43.654;3.884;2023-04-25T17:58:07;5.85;;;1.55;;
79456;SDS011;69494;43.654;3.884;2023-04-25T18:00:35;5.38;;;1.73;;
79456;SDS011;69494;43.654;3.884;2023-04-25T18:03:01;3.30;;;1.45;;
79456;SDS011;69494;43.654;3.884;2023-04-25T18:05:26;3.15;;;1.20;;
79456;SDS011;69494;43.654;3.884;2023-04-25T18:07:51;3.50;;;1.30;;
79456;SDS011;69494;43.654;3.884;2023-04-25T18:10:17;3.45;;;1.13;;
79456;SDS011;69494;43.654;3.884;2023-04-25T18:12:42;3.20;;;1.23;;
79456;SDS011;69494;43.654;3.884;2023-04-25T18:15:08;2.33;;;1.10;;
79456;SDS011;69494;43.654;3.884;2023-04-25T18:17:34;3.40;;;1.20;;
79456;SDS011;69494;43.654;3.884;2023-04-25T18:20:10;5.55;;;1.40;;
79456;SDS011;69494;43.654;3.884;2023-04-25T18:22:39;3.80;;;1.30;;
79456;SDS011;69494;43.654;3.884;2023-04-25T18:25:05;3.63;;;1.42;;
79456;SDS011;69494;43.654;3.884;2023-04-25T18:27:33;4.28;;;1.55;;
79456;SDS011;69494;43.654;3.884;2023-04-25T18:29:59;3.72;;;1.40;;
79456;SDS011;69494;43.654;3.884;2023-04-25T18:32:25;4.78;;;1.50;;
79456;SDS011;69494;43.654;3.884;2023-04-25T18:34:53;3.95;;;1.60;;
79456;SDS011;69494;43.654;3.884;2023-04-25T18:37:18;3.90;;;1.60;;
79456;SDS011;69494;43.654;3.884;2023-04-25T18:39:45;4.03;;;1.30;;
79456;SDS011;69494;43.654;3.884;2023-04-25T18:42:10;7.22;;;1.60;;
79456;SDS011;69494;43.654;3.884;2023-04-25T18:44:35;3.40;;;1.33;;
79456;SDS011;69494;43.654;3.884;2023-04-25T18:47:04;3.45;;;1.40;;
79456;SDS011;69494;43.654;3.884;2023-04-25T18:49:32;3.35;;;1.20;;
79456;SDS011;69494;43.654;3.884;2023-04-25T18:51:57;3.17;;;1.30;;
79456;SDS011;69494;43.654;3.884;2023-04-25T18:54:23;4.65;;;1.80;;
79456;SDS011;69494;43.654;3.884;2023-04-25T18:56:49;3.88;;;1.30;;
79456;SDS011;69494;43.654;3.884;2023-04-25T18:59:14;4.72;;;1.30;;
79456;SDS011;69494;43.654;3.884;2023-04-25T19:01:41;3.42;;;1.48;;
79456;SDS011;69494;43.654;3.884;2023-04-25T19:04:07;3.88;;;1.60;;
79456;SDS011;69494;43.654;3.884;2023-04-25T19:06:33;3.08;;;1.33;;
79456;SDS011;69494;43.654;3.884;2023-04-25T19:08:59;4.13;;;1.52;;
79456;SDS011;69494;43.654;3.884;2023-04-25T19:11:25;5.95;;;1.75;;
79456;SDS011;69494;43.654;3.884;2023-04-25T19:13:50;2.65;;;1.23;;
79456;SDS011;69494;43.654;3.884;2023-04-25T19:16:16;3.95;;;1.40;;
79456;SDS011;69494;43.654;3.884;2023-04-25T19:18:42;3.20;;;1.33;;
79456;SDS011;69494;43.654;3.884;2023-04-25T19:21:08;3.95;;;1.50;;
79456;SDS011;69494;43.654;3.884;2023-04-25T19:23:33;3.25;;;1.45;;
79456;SDS011;69494;43.654;3.884;2023-04-25T19:25:59;3.67;;;1.50;;
79456;SDS011;69494;43.654;3.884;2023-04-25T19:28:25;4.25;;;1.65;;
79456;SDS011;69494;43.654;3.884;2023-04-25T19:30:50;2.95;;;1.20;;
79456;SDS011;69494;43.654;3.884;2023-04-25T19:33:16;3.85;;;1.35;;
79456;SDS011;69494;43.654;3.884;2023-04-25T19:35:42;4.28;;;1.48;;
79456;SDS011;69494;43.654;3.884;2023-04-25T19:38:08;2.70;;;1.13;;
79456;SDS011;69494;43.654;3.884;2023-04-25T19:40:33;5.07;;;1.48;;
79456;SDS011;69494;43.654;3.884;2023-04-25T19:42:59;3.53;;;1.23;;
79456;SDS011;69494;43.654;3.884;2023-04-25T19:45:25;5.18;;;1.48;;
79456;SDS011;69494;43.654;3.884;2023-04-25T19:47:51;4.68;;;1.70;;
79456;SDS011;69494;43.654;3.884;2023-04-25T19:50:17;3.40;;;1.50;;
79456;SDS011;69494;43.654;3.884;2023-04-25T19:52:43;3.63;;;1.48;;
79456;SDS011;69494;43.654;3.884;2023-04-25T19:55:09;4.38;;;1.60;;
79456;SDS011;69494;43.654;3.884;2023-04-25T19:57:35;3.80;;;1.55;;
79456;SDS011;69494;43.654;3.884;2023-04-25T20:00:05;4.45;;;1.80;;
79456;SDS011;69494;43.654;3.884;2023-04-25T20:02:34;3.28;;;1.30;;
79456;SDS011;69494;43.654;3.884;2023-04-25T20:05:00;4.97;;;1.45;;
79456;SDS011;69494;43.654;3.884;2023-04-25T20:07:27;4.10;;;1.40;;
79456;SDS011;69494;43.654;3.884;2023-04-25T20:09:52;4.30;;;1.42;;
79456;SDS011;69494;43.654;3.884;2023-04-25T20:12:18;6.28;;;1.80;;
79456;SDS011;69494;43.654;3.884;2023-04-25T20:14:44;4.15;;;1.38;;
79456;SDS011;69494;43.654;3.884;2023-04-25T20:17:09;3.22;;;1.25;;
79456;SDS011;69494;43.654;3.884;2023-04-25T20:19:35;3.08;;;1.40;;
79456;SDS011;69494;43.654;3.884;2023-04-25T20:22:02;3.58;;;1.30;;
79456;SDS011;69494;43.654;3.884;2023-04-25T20:24:27;4.28;;;1.40;;
79456;SDS011;69494;43.654;3.884;2023-04-25T20:26:53;3.72;;;1.40;;
79456;SDS011;69494;43.654;3.884;2023-04-25T20:29:20;4.15;;;1.63;;
79456;SDS011;69494;43.654;3.884;2023-04-25T20:31:49;4.70;;;1.60;;
79456;SDS011;69494;43.654;3.884;2023-04-25T20:34:18;7.20;;;2.38;;
79456;SDS011;69494;43.654;3.884;2023-04-25T20:36:49;6.15;;;2.08;;
79456;SDS011;69494;43.654;3.884;2023-04-25T20:39:16;7.07;;;2.75;;
79456;SDS011;69494;43.654;3.884;2023-04-25T20:41:41;6.95;;;2.30;;
79456;SDS011;69494;43.654;3.884;2023-04-25T20:44:09;5.25;;;2.00;;
79456;SDS011;69494;43.654;3.884;2023-04-25T20:46:35;6.25;;;1.90;;
79456;SDS011;69494;43.654;3.884;2023-04-25T20:49:01;4.95;;;2.00;;
79456;SDS011;69494;43.654;3.884;2023-04-25T20:51:29;6.45;;;1.75;;
79456;SDS011;69494;43.654;3.884;2023-04-25T20:53:57;6.35;;;1.88;;
79456;SDS011;69494;43.654;3.884;2023-04-25T20:56:24;5.25;;;1.85;;
79456;SDS011;69494;43.654;3.884;2023-04-25T20:58:50;4.15;;;1.88;;
79456;SDS011;69494;43.654;3.884;2023-04-25T21:01:16;5.47;;;1.80;;
79456;SDS011;69494;43.654;3.884;2023-04-25T21:03:42;3.83;;;1.55;;
79456;SDS011;69494;43.654;3.884;2023-04-25T21:06:09;4.28;;;1.67;;
79456;SDS011;69494;43.654;3.884;2023-04-25T21:08:34;4.38;;;1.67;;
79456;SDS011;69494;43.654;3.884;2023-04-25T21:11:00;4.40;;;1.80;;
79456;SDS011;69494;43.654;3.884;2023-04-25T21:13:25;6.90;;;2.50;;
79456;SDS011;69494;43.654;3.884;2023-04-25T21:15:53;4.45;;;1.83;;
79456;SDS011;69494;43.654;3.884;2023-04-25T21:18:18;5.07;;;2.50;;
79456;SDS011;69494;43.654;3.884;2023-04-25T21:20:44;4.70;;;2.10;;
79456;SDS011;69494;43.654;3.884;2023-04-25T21:23:10;4.63;;;2.20;;
79456;SDS011;69494;43.654;3.884;2023-04-25T21:25:35;5.90;;;1.98;;
79456;SDS011;69494;43.654;3.884;2023-04-25T21:28:01;6.15;;;2.28;;
79456;SDS011;69494;43.654;3.884;2023-04-25T21:30:27;5.80;;;2.60;;
79456;SDS011;69494;43.654;3.884;2023-04-25T21:32:52;4.50;;;2.00;;
79456;SDS011;69494;43.654;3.884;2023-04-25T21:35:18;6.18;;;2.00;;
79456;SDS011;69494;43.654;3.884;2023-04-25T21:37:45;7.07;;;1.80;;
79456;SDS011;69494;43.654;3.884;2023-04-25T21:40:11;4.28;;;1.67;;
79456;SDS011;69494;43.654;3.884;2023-04-25T21:45:04;5.25;;;2.45;;
79456;SDS011;69494;43.654;3.884;2023-04-25T21:47:31;5.32;;;2.03;;
79456;SDS011;69494;43.654;3.884;2023-04-25T21:49:57;7.50;;;2.53;;
79456;SDS011;69494;43.654;3.884;2023-04-25T21:52:23;6.20;;;2.05;;
79456;SDS011;69494;43.654;3.884;2023-04-25T21:54:49;4.00;;;1.65;;
79456;SDS011;69494;43.654;3.884;2023-04-25T21:57:14;3.58;;;1.50;;
79456;SDS011;69494;43.654;3.884;2023-04-25T21:59:40;4.15;;;2.30;;
79456;SDS011;69494;43.654;3.884;2023-04-25T22:02:07;4.47;;;1.80;;
79456;SDS011;69494;43.654;3.884;2023-04-25T22:04:33;3.88;;;1.48;;
79456;SDS011;69494;43.654;3.884;2023-04-25T22:06:59;5.75;;;1.80;;
79456;SDS011;69494;43.654;3.884;2023-04-25T22:09:25;5.65;;;2.10;;
79456;SDS011;69494;43.654;3.884;2023-04-25T22:11:51;5.57;;;2.15;;
79456;SDS011;69494;43.654;3.884;2023-04-25T22:14:18;5.75;;;2.45;;
79456;SDS011;69494;43.654;3.884;2023-04-25T22:16:45;5.20;;;2.00;;
79456;SDS011;69494;43.654;3.884;2023-04-25T22:19:11;3.97;;;1.70;;
79456;SDS011;69494;43.654;3.884;2023-04-25T22:21:37;6.82;;;1.50;;
79456;SDS011;69494;43.654;3.884;2023-04-25T22:24:02;8.23;;;2.00;;
79456;SDS011;69494;43.654;3.884;2023-04-25T22:26:30;4.30;;;1.70;;
79456;SDS011;69494;43.654;3.884;2023-04-25T22:28:57;4.45;;;1.65;;
79456;SDS011;69494;43.654;3.884;2023-04-25T22:31:23;4.07;;;1.70;;
79456;SDS011;69494;43.654;3.884;2023-04-25T22:33:48;6.70;;;1.77;;
79456;SDS011;69494;43.654;3.884;2023-04-25T22:36:14;5.10;;;2.08;;
79456;SDS011;69494;43.654;3.884;2023-04-25T22:38:39;6.28;;;2.30;;
79456;SDS011;69494;43.654;3.884;2023-04-25T22:41:05;5.97;;;2.10;;
79456;SDS011;69494;43.654;3.884;2023-04-25T22:43:33;5.00;;;2.00;;
79456;SDS011;69494;43.654;3.884;2023-04-25T22:45:59;4.75;;;2.10;;
79456;SDS011;69494;43.654;3.884;2023-04-25T22:48:26;4.63;;;2.00;;
79456;SDS011;69494;43.654;3.884;2023-04-25T22:51:00;4.70;;;1.88;;
79456;SDS011;69494;43.654;3.884;2023-04-25T22:53:29;9.55;;;2.00;;
79456;SDS011;69494;43.654;3.884;2023-04-25T22:55:56;4.40;;;1.88;;
79456;SDS011;69494;43.654;3.884;2023-04-25T22:58:22;4.35;;;1.73;;
79456;SDS011;69494;43.654;3.884;2023-04-25T23:00:48;5.35;;;2.20;;
79456;SDS011;69494;43.654;3.884;2023-04-25T23:03:15;4.10;;;1.85;;
79456;SDS011;69494;43.654;3.884;2023-04-25T23:05:41;5.30;;;2.22;;
79456;SDS011;69494;43.654;3.884;2023-04-25T23:08:08;4.82;;;2.13;;
79456;SDS011;69494;43.654;3.884;2023-04-25T23:10:33;4.65;;;2.05;;
79456;SDS011;69494;43.654;3.884;2023-04-25T23:12:59;7.28;;;1.95;;
79456;SDS011;69494;43.654;3.884;2023-04-25T23:15:28;4.82;;;2.00;;
79456;SDS011;69494;43.654;3.884;2023-04-25T23:17:55;4.10;;;1.58;;
79456;SDS011;69494;43.654;3.884;2023-04-25T23:20:21;4.53;;;1.65;;
79456;SDS011;69494;43.654;3.884;2023-04-25T23:22:47;4.55;;;1.80;;
79456;SDS011;69494;43.654;3.884;2023-04-25T23:25:13;3.35;;;1.38;;
79456;SDS011;69494;43.654;3.884;2023-04-25T23:27:39;5.13;;;1.70;;
79456;SDS011;69494;43.654;3.884;2023-04-25T23:30:05;4.35;;;1.83;;
79456;SDS011;69494;43.654;3.884;2023-04-25T23:34:58;3.60;;;1.38;;
79456;SDS011;69494;43.654;3.884;2023-04-25T23:37:23;7.30;;;1.75;;
79456;SDS011;69494;43.654;3.884;2023-04-25T23:39:49;5.22;;;1.60;;
79456;SDS011;69494;43.654;3.884;2023-04-25T23:42:15;3.33;;;1.42;;
79456;SDS011;69494;43.654;3.884;2023-04-25T23:44:42;3.58;;;1.63;;
79456;SDS011;69494;43.654;3.884;2023-04-25T23:47:07;7.15;;;1.88;;
79456;SDS011;69494;43.654;3.884;2023-04-25T23:49:33;4.32;;;1.65;;
79456;SDS011;69494;43.654;3.884;2023-04-25T23:51:58;3.58;;;1.50;;
79456;SDS011;69494;43.654;3.884;2023-04-25T23:54:24;3.55;;;1.55;;
79456;SDS011;69494;43.654;3.884;2023-04-25T23:56:49;4.25;;;1.60;;
79456;SDS011;69494;43.654;3.884;2023-04-25T23:59:15;4.55;;;1.58;;
